FRA weather

Frankfurt am Main Airport
Frankfurt am Main, Hesse, Germany

Public forecast

Using degrees Celsius for public forecast. Weather courtesy of forecast.io.

METAR (pilot weather report)

Retrieved 2017/10/22 10:20 UTC (24 minutes ago):

EDDF 221020Z 22014KT 9999 -RA FEW022 BKN028 11/06 Q1015 TEMPO RA

TAF (pilot weather forecast)

Retrieved 2017/10/22 06:27 UTC (4 hours ago):

TAF TAF EDDF 220500Z 2206/2312 20010KT 9999 BKN040 TEMPO 2206/2216 21015G25KT PROB30 TEMPO 2209/2219 SHRA SCT035CB PROB30 TEMPO 2308/2312 27015G25KT